Time;durP1;ratioP1;P1;durP2;ratioP2;P2;SDS_P1;SDS_P2;PMS_P1;PMS_P2;Temp;Humidity;BMP_temperature;BMP_pressure;BME280_temperature;BME280_humidity;BME280_pressure;Samples;Min_cycle;Max_cycle;Signal;HPM_P1;HPM_P2
2021/01/25 00:02:11;;;;;;;25.02;15.93;;;2.60;99.90;;;;;;5045863;28;20036;-69
2021/01/25 00:04:39;;;;;;;24.13;16.50;;;2.60;99.90;;;;;;5031939;28;20032;-69
2021/01/25 00:07:04;;;;;;;24.25;15.85;;;2.60;99.90;;;;;;5046924;28;20098;-69
2021/01/25 00:09:31;;;;;;;25.88;17.27;;;2.80;99.90;;;;;;5043164;28;20021;-69
2021/01/25 00:11:57;;;;;;;24.73;16.20;;;2.90;99.90;;;;;;5049875;28;20033;-69
2021/01/25 00:14:22;;;;;;;22.30;14.88;;;3.00;99.90;;;;;;5042657;28;21433;-69
2021/01/25 00:16:48;;;;;;;23.63;15.68;;;2.90;99.90;;;;;;5048953;28;20035;-69
2021/01/25 00:19:14;;;;;;;22.92;15.00;;;2.70;99.90;;;;;;5047441;28;20021;-70
2021/01/25 00:21:41;;;;;;;23.65;15.60;;;2.90;99.90;;;;;;5046108;28;20025;-70
2021/01/25 00:24:07;;;;;;;25.23;16.13;;;2.80;99.90;;;;;;5044795;28;20409;-70
2021/01/25 00:26:33;;;;;;;24.42;15.13;;;2.90;99.90;;;;;;5045768;28;20040;-69
2021/01/25 00:28:58;;;;;;;25.27;16.15;;;2.90;99.90;;;;;;5049827;28;20032;-69
2021/01/25 00:31:24;;;;;;;22.90;15.43;;;2.90;99.90;;;;;;5042865;28;20032;-70
2021/01/25 00:33:50;;;;;;;25.70;17.27;;;2.90;99.90;;;;;;5050345;28;20021;-70
2021/01/25 00:36:15;;;;;;;26.38;16.77;;;2.80;99.90;;;;;;5053751;28;20100;-71
2021/01/25 00:38:41;;;;;;;28.13;16.15;;;2.80;99.90;;;;;;5033304;28;20143;-71
2021/01/25 00:41:06;;;;;;;23.65;14.75;;;2.90;99.90;;;;;;5048617;28;20041;-71
2021/01/25 00:43:32;;;;;;;22.52;14.52;;;2.80;99.90;;;;;;5045435;28;20499;-71
2021/01/25 00:45:57;;;;;;;25.27;15.68;;;2.80;99.90;;;;;;5047675;28;20053;-71
2021/01/25 00:48:23;;;;;;;23.25;15.32;;;2.80;99.90;;;;;;5050174;28;20016;-71
2021/01/25 00:50:49;;;;;;;25.05;14.95;;;2.90;99.90;;;;;;5030611;28;20021;-71
2021/01/25 00:53:15;;;;;;;24.27;14.40;;;2.90;99.90;;;;;;5049137;28;20056;-71
2021/01/25 00:55:40;;;;;;;22.88;14.88;;;2.90;99.90;;;;;;5042756;28;20079;-71
2021/01/25 00:58:06;;;;;;;24.60;15.10;;;2.90;99.90;;;;;;5047031;28;20029;-72
2021/01/25 01:00:31;;;;;;;24.20;15.00;;;2.90;99.90;;;;;;5050989;28;20021;-71
2021/01/25 01:02:57;;;;;;;24.73;14.65;;;2.90;99.90;;;;;;5051454;28;20028;-71
2021/01/25 01:05:23;;;;;;;27.88;16.38;;;2.90;99.90;;;;;;5032120;28;20035;-72
2021/01/25 01:07:48;;;;;;;25.77;16.38;;;2.90;99.90;;;;;;5050038;28;20040;-71
2021/01/25 01:10:14;;;;;;;25.63;16.00;;;2.90;99.90;;;;;;5050989;28;20100;-71
2021/01/25 01:12:40;;;;;;;23.20;15.40;;;2.90;99.90;;;;;;5046017;28;20124;-71
2021/01/25 01:15:15;;;;;;;27.40;16.00;;;2.90;99.90;;;;;;5047567;28;20087;-71
2021/01/25 01:17:42;;;;;;;24.38;15.27;;;2.90;99.90;;;;;;5048930;28;20437;-71
2021/01/25 01:20:10;;;;;;;30.23;15.07;;;3.00;99.90;;;;;;5044818;28;20056;-71
2021/01/25 01:22:35;;;;;;;23.45;16.30;;;2.90;99.90;;;;;;5048100;28;20075;-70
2021/01/25 01:25:02;;;;;;;27.75;16.90;;;2.90;99.90;;;;;;5050607;28;20045;-71
2021/01/25 01:27:27;;;;;;;24.45;16.13;;;3.00;99.90;;;;;;5048177;28;20044;-71
2021/01/25 01:29:53;;;;;;;28.73;17.58;;;3.00;99.90;;;;;;5044261;28;20029;-71
2021/01/25 01:32:19;;;;;;;25.85;16.98;;;3.00;99.90;;;;;;5050958;28;20506;-71
2021/01/25 01:34:45;;;;;;;27.33;17.20;;;2.90;99.90;;;;;;5051000;28;20020;-72
2021/01/25 01:37:12;;;;;;;25.70;15.73;;;2.90;99.90;;;;;;5053565;28;20493;-71
2021/01/25 01:39:38;;;;;;;30.25;16.92;;;2.90;99.90;;;;;;5043973;28;20203;-70
2021/01/25 01:42:04;;;;;;;28.52;17.17;;;2.90;99.90;;;;;;5052364;28;20544;-71
2021/01/25 01:44:30;;;;;;;26.15;16.65;;;3.00;99.90;;;;;;5018962;28;20030;-71
2021/01/25 01:46:56;;;;;;;29.80;18.55;;;3.00;99.90;;;;;;5043145;28;20048;-71
2021/01/25 01:49:22;;;;;;;31.42;18.75;;;3.00;99.90;;;;;;5031232;28;20033;-70
2021/01/25 01:51:48;;;;;;;26.42;18.23;;;3.00;99.90;;;;;;5033526;28;20029;-70
2021/01/25 01:54:14;;;;;;;31.98;18.30;;;3.00;99.90;;;;;;5044635;28;20512;-70
2021/01/25 01:56:40;;;;;;;28.23;17.95;;;3.00;99.90;;;;;;5052029;28;20365;-71
2021/01/25 01:59:06;;;;;;;27.95;18.38;;;3.00;99.90;;;;;;5026746;28;20033;-70
2021/01/25 02:01:31;;;;;;;28.45;17.27;;;2.90;99.90;;;;;;5030943;28;20028;-69
2021/01/25 02:03:59;;;;;;;29.13;18.48;;;3.00;99.90;;;;;;5052759;28;20499;-70
2021/01/25 02:06:28;;;;;;;33.33;18.20;;;3.00;99.90;;;;;;5045307;28;20043;-70
2021/01/25 02:08:57;;;;;;;34.03;19.23;;;3.00;99.90;;;;;;5033917;28;20021;-70
2021/01/25 02:11:24;;;;;;;32.08;19.55;;;3.10;99.90;;;;;;5052766;28;20416;-70
2021/01/25 02:13:50;;;;;;;32.25;20.00;;;3.10;99.90;;;;;;5046020;28;20024;-71
2021/01/25 02:16:16;;;;;;;36.70;22.10;;;3.10;99.90;;;;;;5035497;28;20527;-70
2021/01/25 02:18:41;;;;;;;36.70;22.38;;;3.10;99.90;;;;;;5051877;28;20033;-71
2021/01/25 02:21:11;;;;;;;37.08;21.60;;;3.10;99.90;;;;;;5047219;28;20029;-70
2021/01/25 02:24:24;;;;;;;35.33;21.10;;;3.10;99.90;;;;;;5033535;28;20505;-71
2021/01/25 02:26:56;;;;;;;37.25;22.08;;;3.10;99.90;;;;;;5003671;28;20548;-71
2021/01/25 02:29:22;;;;;;;28.47;19.73;;;3.20;99.90;;;;;;5027891;28;20488;-70
2021/01/25 02:31:49;;;;;;;42.78;23.70;;;3.20;99.90;;;;;;5044705;28;20024;-71
2021/01/25 02:34:16;;;;;;;41.80;22.42;;;3.20;99.90;;;;;;5050881;28;20108;-70
2021/01/25 02:36:44;;;;;;;34.95;21.42;;;3.30;99.90;;;;;;5047173;28;21464;-71
2021/01/25 02:39:10;;;;;;;38.42;22.40;;;3.30;99.90;;;;;;5048857;28;20052;-70
2021/01/25 02:41:36;;;;;;;34.00;21.92;;;3.20;99.90;;;;;;5048758;28;20397;-71
2021/01/25 02:44:04;;;;;;;40.15;22.98;;;3.20;99.90;;;;;;5048702;28;20545;-71
2021/01/25 02:46:30;;;;;;;41.78;23.52;;;3.20;99.90;;;;;;5047529;28;20021;-71
2021/01/25 02:48:56;;;;;;;40.15;22.50;;;3.20;99.90;;;;;;5026506;28;20053;-71
2021/01/25 02:51:22;;;;;;;38.80;23.40;;;3.20;99.90;;;;;;5049749;28;20429;-71
2021/01/25 02:53:48;;;;;;;35.53;23.13;;;3.20;99.90;;;;;;5050919;28;20017;-71
2021/01/25 02:56:14;;;;;;;37.75;22.83;;;3.30;99.90;;;;;;5039089;28;20104;-70
2021/01/25 02:58:41;;;;;;;62.70;28.23;;;3.30;99.90;;;;;;5045420;28;20040;-71
2021/01/25 03:01:07;;;;;;;38.38;21.95;;;3.30;99.90;;;;;;5050047;28;20393;-71
2021/01/25 03:03:34;;;;;;;42.05;22.02;;;3.30;99.90;;;;;;5046873;28;20021;-71
2021/01/25 03:06:00;;;;;;;42.83;23.10;;;3.30;99.90;;;;;;5045380;28;20466;-71
2021/01/25 03:08:26;;;;;;;34.85;21.42;;;3.30;99.90;;;;;;5046998;28;20064;-71
2021/01/25 03:10:53;;;;;;;36.15;20.67;;;3.30;99.90;;;;;;5051474;28;20025;-71
2021/01/25 03:13:27;;;;;;;40.05;22.10;;;3.30;99.90;;;;;;5041292;28;20040;-71
2021/01/25 03:15:57;;;;;;;35.25;20.42;;;3.40;99.90;;;;;;5044050;28;20021;-71
2021/01/25 03:18:24;;;;;;;38.47;22.75;;;3.40;99.90;;;;;;5053040;28;20029;-71
2021/01/25 03:20:51;;;;;;;40.63;21.98;;;3.40;99.90;;;;;;5047664;28;20469;-71
2021/01/25 03:23:17;;;;;;;38.97;22.10;;;3.40;99.90;;;;;;5043499;28;20473;-70
2021/01/25 03:25:44;;;;;;;34.38;20.90;;;3.40;99.90;;;;;;5047162;28;20064;-71
2021/01/25 03:28:10;;;;;;;35.97;21.60;;;3.40;99.90;;;;;;5051306;28;20441;-71
2021/01/25 03:30:36;;;;;;;32.58;19.85;;;3.50;99.90;;;;;;5042136;28;20017;-71
2021/01/25 03:33:02;;;;;;;36.53;21.70;;;3.50;99.90;;;;;;5049984;28;20024;-71
2021/01/25 03:35:28;;;;;;;34.47;20.85;;;3.40;99.90;;;;;;5047840;28;20358;-71
2021/01/25 03:37:53;;;;;;;39.17;22.40;;;3.50;99.90;;;;;;5029346;28;20021;-71
2021/01/25 03:40:19;;;;;;;47.08;23.48;;;3.40;99.90;;;;;;5049395;28;20045;-71
2021/01/25 03:42:45;;;;;;;41.45;23.40;;;3.30;99.90;;;;;;5047877;28;20033;-71
2021/01/25 03:45:11;;;;;;;34.78;20.60;;;3.30;99.90;;;;;;5024101;28;20408;-71
2021/01/25 03:47:36;;;;;;;39.17;23.25;;;3.40;99.90;;;;;;5045370;28;20094;-71
2021/01/25 03:50:03;;;;;;;40.53;23.10;;;3.40;99.90;;;;;;5046544;28;20025;-71
2021/01/25 03:52:29;;;;;;;39.00;22.08;;;3.40;99.90;;;;;;5042688;28;20021;-71
2021/01/25 03:54:55;;;;;;;34.70;21.58;;;3.40;99.90;;;;;;5048137;28;20413;-71
2021/01/25 03:57:21;;;;;;;38.03;22.30;;;3.50;99.90;;;;;;5048858;28;20037;-71
2021/01/25 03:59:46;;;;;;;36.83;20.67;;;3.50;99.90;;;;;;5046681;28;20045;-71
2021/01/25 04:02:13;;;;;;;37.17;22.60;;;3.50;99.90;;;;;;5042028;28;20572;-71
2021/01/25 04:04:42;;;;;;;38.25;23.55;;;3.40;99.90;;;;;;5049046;28;20036;-71
2021/01/25 04:07:10;;;;;;;36.42;21.27;;;3.40;99.90;;;;;;5045681;28;20033;-71
2021/01/25 04:09:36;;;;;;;38.38;22.70;;;3.40;99.90;;;;;;5047929;28;20017;-71
2021/01/25 04:12:03;;;;;;;39.92;22.23;;;3.50;99.90;;;;;;5048659;28;20119;-71
2021/01/25 04:14:28;;;;;;;42.03;23.48;;;3.50;99.90;;;;;;5046481;28;20104;-70
2021/01/25 04:16:54;;;;;;;53.95;25.27;;;3.50;99.90;;;;;;5043651;28;20486;-71
2021/01/25 04:19:19;;;;;;;40.33;22.23;;;3.50;99.90;;;;;;5045085;28;20021;-71
2021/01/25 04:21:45;;;;;;;42.90;24.10;;;3.50;99.90;;;;;;5046144;28;20037;-71
2021/01/25 04:24:11;;;;;;;39.83;22.02;;;3.40;99.90;;;;;;5047753;28;20028;-71
2021/01/25 04:26:41;;;;;;;37.42;21.65;;;3.40;99.90;;;;;;5048764;28;20045;-71
2021/01/25 04:29:16;;;;;;;36.22;21.98;;;3.50;99.90;;;;;;5042649;28;20546;-71
2021/01/25 04:31:41;;;;;;;41.72;23.90;;;3.50;99.90;;;;;;5029162;28;20104;-71
2021/01/25 04:34:07;;;;;;;40.50;24.02;;;3.50;99.90;;;;;;5044916;28;20099;-71
2021/01/25 04:36:33;;;;;;;42.90;24.00;;;3.50;99.90;;;;;;5047994;28;20146;-71
2021/01/25 04:38:59;;;;;;;39.28;23.00;;;3.50;99.90;;;;;;5048628;28;20051;-71
2021/01/25 04:41:25;;;;;;;37.22;22.65;;;3.50;99.90;;;;;;5049340;28;20045;-71
2021/01/25 04:43:53;;;;;;;38.72;23.58;;;3.50;99.90;;;;;;5048274;28;20027;-72
2021/01/25 04:46:20;;;;;;;38.50;24.00;;;3.50;99.90;;;;;;5046704;28;20370;-71
2021/01/25 04:48:46;;;;;;;39.85;23.40;;;3.50;99.90;;;;;;5027336;28;20030;-71
2021/01/25 04:51:14;;;;;;;38.05;21.83;;;3.50;99.90;;;;;;5042625;28;20024;-71
2021/01/25 04:53:41;;;;;;;41.08;23.17;;;3.50;99.90;;;;;;5044151;28;20178;-71
2021/01/25 04:56:08;;;;;;;36.58;22.20;;;3.50;99.90;;;;;;5049978;28;20082;-71
2021/01/25 04:58:35;;;;;;;43.03;23.60;;;3.50;99.90;;;;;;5048486;28;20021;-71
2021/01/25 05:01:01;;;;;;;39.05;22.15;;;3.50;99.90;;;;;;5039321;28;20261;-70
2021/01/25 05:03:28;;;;;;;39.75;22.25;;;3.50;99.90;;;;;;5044193;28;20033;-71
2021/01/25 05:05:54;;;;;;;41.55;22.70;;;3.50;99.90;;;;;;5050268;28;20916;-71
2021/01/25 05:08:20;;;;;;;37.25;21.67;;;3.50;99.90;;;;;;5048897;28;20021;-70
2021/01/25 05:10:45;;;;;;;38.53;21.98;;;3.50;99.90;;;;;;5049849;28;20049;-71
2021/01/25 05:13:23;;;;;;;39.42;22.55;;;3.50;99.90;;;;;;5042422;28;20075;-70
2021/01/25 05:15:53;;;;;;;37.28;21.48;;;3.50;99.90;;;;;;5048018;28;20036;-71
2021/01/25 05:18:22;;;;;;;37.00;21.42;;;3.50;99.90;;;;;;5047781;28;20111;-71
2021/01/25 05:20:56;;;;;;;37.53;21.10;;;3.50;99.90;;;;;;5043844;28;20393;-71
2021/01/25 05:23:22;;;;;;;37.58;21.77;;;3.50;99.90;;;;;;5051873;28;20029;-71
2021/01/25 05:25:48;;;;;;;34.08;20.85;;;3.50;99.90;;;;;;5050487;28;20056;-71
2021/01/25 05:28:15;;;;;;;42.40;22.15;;;3.50;99.90;;;;;;5054236;28;20029;-71
2021/01/25 05:30:41;;;;;;;41.08;22.75;;;3.50;99.90;;;;;;5045451;28;20024;-71
2021/01/25 05:33:07;;;;;;;40.97;22.13;;;3.50;99.90;;;;;;5050045;28;20029;-71
2021/01/25 05:35:33;;;;;;;46.75;23.95;;;3.40;99.90;;;;;;5047058;28;20029;-71
2021/01/25 05:38:00;;;;;;;45.88;23.63;;;3.50;99.90;;;;;;5053130;28;20036;-71
2021/01/25 05:40:27;;;;;;;45.25;23.02;;;3.40;99.90;;;;;;5042655;28;20117;-71
2021/01/25 05:42:55;;;;;;;45.10;23.77;;;3.40;99.90;;;;;;5050917;28;20426;-71
2021/01/25 05:45:21;;;;;;;50.58;26.02;;;3.50;99.90;;;;;;5053965;28;20104;-71
2021/01/25 05:47:52;;;;;;;48.40;25.75;;;3.50;99.90;;;;;;5044476;28;20036;-71
2021/01/25 05:50:35;;;;;;;45.30;25.38;;;3.50;99.90;;;;;;5047519;28;20029;-71
2021/01/25 05:53:12;;;;;;;51.45;28.13;;;3.50;99.90;;;;;;5051280;28;20032;-71
2021/01/25 05:55:39;;;;;;;55.38;26.25;;;3.50;99.90;;;;;;5052313;28;20469;-71
2021/01/25 05:58:05;;;;;;;56.35;25.92;;;3.50;99.90;;;;;;5053266;28;20440;-71
2021/01/25 06:00:33;;;;;;;56.42;27.15;;;3.50;99.90;;;;;;5033922;28;20406;-71
2021/01/25 06:02:59;;;;;;;47.45;26.55;;;3.50;99.90;;;;;;5048953;28;20067;-71
2021/01/25 06:05:30;;;;;;;50.28;26.80;;;3.50;99.90;;;;;;5048390;28;20469;-71
2021/01/25 06:08:27;;;;;;;57.22;28.70;;;3.50;99.90;;;;;;5048911;28;20028;-71
2021/01/25 06:11:05;;;;;;;57.85;27.35;;;3.50;99.90;;;;;;5047276;28;20021;-71
2021/01/25 06:13:40;;;;;;;61.65;28.25;;;3.50;99.90;;;;;;5048360;28;20128;-71
2021/01/25 06:16:09;;;;;;;62.08;28.10;;;3.50;99.90;;;;;;5035049;28;20078;-70
2021/01/25 06:18:35;;;;;;;58.75;27.92;;;3.50;99.90;;;;;;5050235;28;20025;-72
2021/01/25 06:21:04;;;;;;;52.45;27.95;;;3.50;99.90;;;;;;5048573;28;20426;-71
2021/01/25 06:23:30;;;;;;;57.92;29.30;;;3.50;99.90;;;;;;5032044;28;20021;-71
2021/01/25 06:25:56;;;;;;;67.57;30.10;;;3.50;99.90;;;;;;5047938;28;20103;-71
2021/01/25 06:28:22;;;;;;;64.82;31.63;;;3.50;99.90;;;;;;5047037;28;20481;-71
2021/01/25 06:30:48;;;;;;;67.45;31.23;;;3.50;99.90;;;;;;5047025;28;20025;-71
2021/01/25 06:33:17;;;;;;;71.80;35.08;;;3.40;99.90;;;;;;5049733;28;20055;-71
2021/01/25 06:35:47;;;;;;;67.53;32.25;;;3.50;99.90;;;;;;5033370;28;20033;-71
2021/01/25 06:38:15;;;;;;;76.13;33.47;;;3.50;99.90;;;;;;5045869;28;20033;-71
2021/01/25 06:40:45;;;;;;;71.10;33.83;;;3.50;99.90;;;;;;5045021;28;20116;-71
2021/01/25 06:43:14;;;;;;;78.32;34.05;;;3.50;99.90;;;;;;5051517;28;20720;-71
2021/01/25 06:45:44;;;;;;;75.65;34.17;;;3.50;99.90;;;;;;5045248;28;20026;-71
2021/01/25 06:48:15;;;;;;;86.88;35.70;;;3.50;99.90;;;;;;5045055;28;20040;-71
2021/01/25 06:50:48;;;;;;;79.55;36.15;;;3.40;99.90;;;;;;5048021;28;20377;-70
2021/01/25 06:53:14;;;;;;;;;;;3.40;99.90;;;;;;5046255;28;20533;-71
2021/01/25 06:55:42;;;;;;;96.45;38.30;;;3.40;99.90;;;;;;5049839;28;19999;-70
2021/01/25 06:58:11;;;;;;;106.65;41.47;;;3.40;99.90;;;;;;5045115;28;20025;-71
2021/01/25 07:00:38;;;;;;;117.53;41.40;;;3.40;99.90;;;;;;5049445;28;20439;-71
2021/01/25 07:03:05;;;;;;;92.75;38.78;;;3.40;99.90;;;;;;5046072;28;20036;-71
2021/01/25 07:05:32;;;;;;;90.15;39.08;;;3.30;99.90;;;;;;5050291;28;20018;-71
2021/01/25 07:08:22;;;;;;;93.65;40.33;;;3.30;99.90;;;;;;5048352;28;20116;-71
2021/01/25 07:11:00;;;;;;;89.45;40.10;;;3.40;99.90;;;;;;5028623;28;20052;-71
2021/01/25 07:13:30;;;;;;;95.03;41.42;;;3.60;99.90;;;;;;5050108;28;20033;-71
2021/01/25 07:15:57;;;;;;;93.32;40.22;;;3.50;99.90;;;;;;5049745;28;20481;-71
2021/01/25 07:18:25;;;;;;;89.53;38.88;;;3.50;99.90;;;;;;5049725;28;20032;-70
2021/01/25 07:20:52;;;;;;;114.38;42.75;;;3.50;99.90;;;;;;5040790;28;20048;-71
2021/01/25 07:23:20;;;;;;;106.50;41.85;;;3.50;99.90;;;;;;5049194;28;20036;-71
2021/01/25 07:26:00;;;;;;;110.43;43.22;;;3.40;99.90;;;;;;5045849;28;20508;-71
2021/01/25 07:28:31;;;;;;;104.70;43.38;;;3.40;99.90;;;;;;5026321;28;20149;-72
2021/01/25 07:30:57;;;;;;;166.20;49.15;;;3.30;99.90;;;;;;5041120;28;20053;-72
2021/01/25 07:33:24;;;;;;;111.68;44.40;;;3.30;99.90;;;;;;5048762;28;20043;-72
2021/01/25 07:35:50;;;;;;;94.22;41.80;;;3.30;99.90;;;;;;5049637;28;20536;-72
2021/01/25 07:38:17;;;;;;;149.20;49.80;;;3.30;99.90;;;;;;5044825;28;20017;-72
2021/01/25 07:40:44;;;;;;;111.85;45.13;;;3.20;99.90;;;;;;5050392;28;20477;-72
2021/01/25 07:43:10;;;;;;;116.05;46.08;;;3.20;99.90;;;;;;5047872;28;20067;-72
2021/01/25 07:45:36;;;;;;;104.55;44.95;;;3.20;99.90;;;;;;5049731;28;20033;-72
2021/01/25 07:48:02;;;;;;;133.98;48.70;;;3.20;99.90;;;;;;5050816;28;20529;-72
2021/01/25 07:50:27;;;;;;;109.68;45.05;;;3.20;99.90;;;;;;5049706;28;20036;-71
2021/01/25 07:53:00;;;;;;;118.72;45.22;;;3.20;99.90;;;;;;5047437;28;20389;-72
2021/01/25 07:55:27;;;;;;;107.72;45.88;;;3.20;99.90;;;;;;5047787;28;20029;-72
2021/01/25 07:57:55;;;;;;;107.95;45.28;;;3.30;99.90;;;;;;5044576;28;20021;-71
2021/01/25 08:00:23;;;;;;;107.80;45.22;;;3.30;99.90;;;;;;5042817;28;20025;-72
2021/01/25 08:02:54;;;;;;;104.82;42.65;;;3.30;99.90;;;;;;5046549;28;20371;-72
2021/01/25 08:05:21;;;;;;;104.75;44.42;;;3.20;99.90;;;;;;5041582;28;20029;-72
2021/01/25 08:07:48;;;;;;;101.13;43.88;;;3.30;99.90;;;;;;5047693;28;20059;-72
2021/01/25 08:10:14;;;;;;;99.45;43.45;;;3.30;99.90;;;;;;5033767;28;20039;-72
2021/01/25 08:12:43;;;;;;;110.30;45.65;;;3.40;99.90;;;;;;5047776;28;20037;-72
2021/01/25 08:15:12;;;;;;;102.20;44.53;;;3.30;99.90;;;;;;5043630;28;20435;-72
2021/01/25 08:18:04;;;;;;;110.78;46.70;;;3.40;99.90;;;;;;5043247;28;20029;-72
2021/01/25 08:20:33;;;;;;;101.05;44.70;;;3.40;99.90;;;;;;5050106;28;20032;-71
2021/01/25 08:23:29;;;;;;;105.35;46.95;;;3.50;99.90;;;;;;5045345;28;20040;-72
2021/01/25 08:25:57;;;;;;;105.03;46.22;;;3.50;99.90;;;;;;5037486;28;20790;-72
2021/01/25 08:28:35;;;;;;;100.60;43.40;;;3.40;99.90;;;;;;5044045;28;20047;-72
2021/01/25 08:31:31;;;;;;;112.03;45.72;;;3.40;99.90;;;;;;5043600;28;20120;-72
2021/01/25 08:34:01;;;;;;;129.68;48.97;;;3.40;99.90;;;;;;5019037;28;20045;-73
2021/01/25 08:36:36;;;;;;;101.43;44.63;;;3.40;99.90;;;;;;5041586;28;20376;-73
2021/01/25 08:39:41;;;;;;;103.13;46.03;;;3.40;99.90;;;;;;5041193;28;20029;-73
2021/01/25 08:42:30;;;;;;;99.78;45.00;;;3.50;99.90;;;;;;5037542;28;20485;-73
2021/01/25 08:45:04;;;;;;;95.85;45.20;;;3.50;99.90;;;;;;5044104;28;20369;-73
2021/01/25 08:47:32;;;;;;;99.95;43.83;;;3.50;99.90;;;;;;5050094;28;20036;-73
2021/01/25 08:49:59;;;;;;;88.07;43.03;;;3.40;99.90;;;;;;5029391;28;20032;-72
2021/01/25 08:52:26;;;;;;;89.68;43.35;;;3.50;99.90;;;;;;5041719;28;20029;-73
2021/01/25 08:55:03;;;;;;;89.28;42.35;;;3.50;99.90;;;;;;5049081;28;20052;-73
2021/01/25 08:57:35;;;;;;;84.55;41.42;;;3.50;99.90;;;;;;5033332;28;21186;-73
2021/01/25 09:00:27;;;;;;;84.88;42.22;;;3.50;99.90;;;;;;5049771;28;20033;-73
2021/01/25 09:02:59;;;;;;;79.70;40.78;;;3.50;99.90;;;;;;5046310;28;20079;-73
2021/01/25 09:05:24;;;;;;;78.85;38.15;;;3.50;99.90;;;;;;5049627;28;20024;-73
2021/01/25 09:07:51;;;;;;;84.80;40.47;;;3.50;99.90;;;;;;5050322;28;20033;-73
2021/01/25 09:10:17;;;;;;;70.80;37.85;;;3.50;99.90;;;;;;5050568;28;20024;-73
2021/01/25 09:12:43;;;;;;;81.60;39.42;;;3.50;99.90;;;;;;5047516;28;20385;-73
2021/01/25 09:15:09;;;;;;;71.30;37.38;;;3.60;99.90;;;;;;5049311;28;20033;-73
2021/01/25 09:17:36;;;;;;;65.10;35.40;;;3.60;99.90;;;;;;5034631;28;20465;-73
2021/01/25 09:20:05;;;;;;;56.40;33.90;;;3.50;99.90;;;;;;5054473;28;20028;-73
2021/01/25 09:22:32;;;;;;;67.53;36.67;;;3.60;99.90;;;;;;5052234;28;20009;-73
2021/01/25 09:24:58;;;;;;;58.97;33.70;;;3.60;99.90;;;;;;5044303;28;20017;-73
2021/01/25 09:27:23;;;;;;;56.58;33.92;;;3.70;99.90;;;;;;5026478;28;20036;-73
2021/01/25 09:29:49;;;;;;;66.13;34.78;;;3.80;99.90;;;;;;5028676;28;20055;-72
2021/01/25 09:32:15;;;;;;;59.08;33.83;;;3.70;99.90;;;;;;5032975;28;20437;-73
2021/01/25 09:34:40;;;;;;;64.13;34.58;;;3.80;99.90;;;;;;5047498;28;20163;-73
2021/01/25 09:37:07;;;;;;;64.35;35.20;;;3.90;99.90;;;;;;5046891;28;20025;-72
2021/01/25 09:39:33;;;;;;;63.08;33.85;;;4.00;99.90;;;;;;5048083;28;20419;-72
2021/01/25 09:41:59;;;;;;;59.28;34.95;;;4.10;99.90;;;;;;5049504;28;20041;-72
2021/01/25 09:44:25;;;;;;;58.03;33.58;;;4.10;99.90;;;;;;5049252;28;20032;-73
2021/01/25 09:46:52;;;;;;;62.25;35.72;;;4.10;99.90;;;;;;5043416;28;20229;-73
2021/01/25 09:49:18;;;;;;;55.35;34.28;;;4.10;99.90;;;;;;5044674;28;20022;-73
2021/01/25 09:51:46;;;;;;;58.63;33.80;;;4.10;99.90;;;;;;5050584;28;20025;-73
2021/01/25 09:54:11;;;;;;;55.42;32.70;;;4.10;99.90;;;;;;5042173;28;20528;-73
2021/01/25 09:56:37;;;;;;;57.15;33.47;;;4.20;99.90;;;;;;5046952;28;20021;-73
2021/01/25 09:59:03;;;;;;;58.55;33.47;;;4.20;99.90;;;;;;5043018;28;20125;-73
2021/01/25 10:01:29;;;;;;;55.55;33.20;;;4.20;99.90;;;;;;5046963;28;20031;-73
2021/01/25 10:03:55;;;;;;;53.72;31.98;;;4.30;99.90;;;;;;5046002;28;20028;-73
2021/01/25 10:06:21;;;;;;;55.33;32.92;;;4.30;99.90;;;;;;5045271;28;20405;-73
2021/01/25 10:08:47;;;;;;;50.67;31.38;;;4.30;99.90;;;;;;5046747;28;20025;-73
2021/01/25 10:11:13;;;;;;;59.70;35.03;;;4.40;99.90;;;;;;5048100;28;20136;-74
2021/01/25 10:13:39;;;;;;;50.97;31.75;;;4.40;99.90;;;;;;5042308;28;20083;-73
2021/01/25 10:16:05;;;;;;;56.67;32.90;;;4.40;99.90;;;;;;5048708;28;20037;-73
2021/01/25 10:18:30;;;;;;;55.78;34.38;;;4.50;99.90;;;;;;5045220;28;20026;-73
2021/01/25 10:20:58;;;;;;;53.83;33.63;;;4.60;99.90;;;;;;5046769;28;20036;-73
2021/01/25 10:23:24;;;;;;;52.58;32.53;;;4.60;99.90;;;;;;5046532;28;20096;-72
2021/01/25 10:25:50;;;;;;;53.42;31.85;;;4.60;99.90;;;;;;5045725;28;20033;-73
2021/01/25 10:28:18;;;;;;;52.72;30.27;;;4.70;99.90;;;;;;5045940;28;20041;-72
2021/01/25 10:30:44;;;;;;;49.85;30.63;;;4.60;99.90;;;;;;5045611;28;20370;-73
2021/01/25 10:33:10;;;;;;;51.33;30.60;;;4.60;99.90;;;;;;5036706;28;20050;-73
2021/01/25 10:35:35;;;;;;;53.45;32.17;;;4.60;99.90;;;;;;5045279;28;20102;-73
2021/01/25 10:38:02;;;;;;;47.40;30.08;;;4.60;99.90;;;;;;5049085;28;20036;-72
2021/01/25 10:40:28;;;;;;;47.63;30.30;;;4.70;99.90;;;;;;5044057;28;20021;-72
2021/01/25 10:42:55;;;;;;;53.47;32.03;;;4.70;99.90;;;;;;5049273;28;20095;-73
2021/01/25 10:45:21;;;;;;;49.17;30.20;;;4.70;99.90;;;;;;5044777;28;20482;-73
2021/01/25 10:47:47;;;;;;;54.38;32.17;;;4.70;99.90;;;;;;5046487;28;20079;-73
2021/01/25 10:50:13;;;;;;;45.70;29.52;;;4.70;99.90;;;;;;5042986;28;20065;-73
2021/01/25 10:52:40;;;;;;;50.05;30.48;;;4.70;99.90;;;;;;5043433;28;20195;-73
2021/01/25 10:55:07;;;;;;;47.30;30.20;;;4.80;99.90;;;;;;5045524;28;20025;-73
2021/01/25 10:57:33;;;;;;;52.67;32.35;;;4.70;99.90;;;;;;5047269;28;20029;-73
2021/01/25 11:00:06;;;;;;;52.42;32.30;;;4.80;99.90;;;;;;5047681;28;20036;-73
2021/01/25 11:02:32;;;;;;;57.58;32.83;;;4.80;99.90;;;;;;5032387;28;20036;-73
2021/01/25 11:04:57;;;;;;;62.47;36.63;;;4.90;99.90;;;;;;5042992;28;20033;-74
2021/01/25 11:07:23;;;;;;;66.07;37.78;;;4.90;99.90;;;;;;5044599;28;20551;-74
2021/01/25 11:09:50;;;;;;;61.45;36.53;;;5.00;99.90;;;;;;5044481;28;20061;-71
2021/01/25 11:12:16;;;;;;;53.70;31.23;;;5.00;99.90;;;;;;5049329;28;20030;-72
2021/01/25 11:14:42;;;;;;;120.55;41.20;;;5.00;99.90;;;;;;5026125;28;20025;-72
2021/01/25 11:17:08;;;;;;;63.60;37.70;;;5.10;99.90;;;;;;5048472;28;20025;-72
2021/01/25 11:19:34;;;;;;;53.65;34.53;;;5.10;99.90;;;;;;5048796;28;20099;-72
2021/01/25 11:21:59;;;;;;;59.85;37.45;;;5.10;99.90;;;;;;5041862;28;20112;-72
2021/01/25 11:24:25;;;;;;;50.75;31.60;;;5.20;99.90;;;;;;5047744;28;20104;-72
2021/01/25 11:26:52;;;;;;;55.10;33.25;;;5.10;99.90;;;;;;5046911;28;20094;-71
2021/01/25 11:29:19;;;;;;;55.08;31.02;;;5.10;99.90;;;;;;5042159;28;20413;-71
2021/01/25 11:31:45;;;;;;;51.85;31.45;;;5.20;99.90;;;;;;5042209;28;20021;-72
2021/01/25 11:34:10;;;;;;;48.55;30.65;;;5.20;99.90;;;;;;5043914;28;20025;-72
2021/01/25 11:36:36;;;;;;;50.33;29.98;;;5.20;99.90;;;;;;5042675;28;20140;-71
2021/01/25 11:39:03;;;;;;;47.88;31.20;;;5.30;99.90;;;;;;5044875;28;20071;-71
2021/01/25 11:41:28;;;;;;;46.97;26.95;;;5.30;99.90;;;;;;5028314;28;20025;-72
2021/01/25 11:43:54;;;;;;;40.78;26.83;;;5.30;99.90;;;;;;5046784;28;20040;-72
2021/01/25 11:46:19;;;;;;;41.35;26.58;;;5.40;99.90;;;;;;5049587;28;20037;-71
2021/01/25 11:48:45;;;;;;;43.30;27.17;;;5.40;99.90;;;;;;5042707;28;20025;-71
2021/01/25 11:51:11;;;;;;;45.05;27.75;;;5.40;99.90;;;;;;5046142;28;20052;-72
2021/01/25 11:53:36;;;;;;;44.53;28.42;;;5.40;99.90;;;;;;5048142;28;20460;-72
2021/01/25 11:56:02;;;;;;;38.47;25.20;;;5.50;99.90;;;;;;5044768;28;20029;-71
2021/01/25 11:58:28;;;;;;;40.95;26.92;;;5.50;99.90;;;;;;5044535;28;20070;-72
2021/01/25 12:00:53;;;;;;;34.25;21.70;;;5.60;99.90;;;;;;5041265;28;20050;-72
2021/01/25 12:03:19;;;;;;;37.53;25.42;;;5.60;99.90;;;;;;5043881;28;20032;-72
2021/01/25 12:05:44;;;;;;;41.47;27.35;;;5.60;99.90;;;;;;5048908;28;20503;-72
2021/01/25 12:08:11;;;;;;;41.45;27.77;;;5.60;99.90;;;;;;5046093;28;20104;-72
2021/01/25 12:10:37;;;;;;;36.72;24.70;;;5.70;99.90;;;;;;5042667;28;20381;-72
2021/01/25 12:13:03;;;;;;;39.28;24.33;;;5.60;99.90;;;;;;5046748;28;20544;-72
2021/01/25 12:15:28;;;;;;;35.45;23.35;;;5.60;99.90;;;;;;5047151;28;20048;-72
2021/01/25 12:17:54;;;;;;;35.72;23.33;;;5.50;99.90;;;;;;5028303;28;20097;-72
2021/01/25 12:20:20;;;;;;;39.88;24.30;;;5.50;99.90;;;;;;5045859;28;20133;-72
2021/01/25 12:22:45;;;;;;;33.97;22.63;;;5.50;99.90;;;;;;5031171;28;20014;-72
2021/01/25 12:25:11;;;;;;;36.70;22.67;;;5.50;99.90;;;;;;5036607;28;20492;-72
2021/01/25 12:27:37;;;;;;;33.90;22.92;;;5.50;99.90;;;;;;5044045;28;20032;-72
2021/01/25 12:30:04;;;;;;;38.97;23.23;;;5.50;99.90;;;;;;5042609;28;20022;-71
2021/01/25 12:32:30;;;;;;;40.30;25.00;;;5.50;99.90;;;;;;5050504;28;20040;-71
2021/01/25 12:34:56;;;;;;;39.78;22.45;;;5.50;99.90;;;;;;5049240;28;20030;-72
2021/01/25 12:37:21;;;;;;;36.97;24.15;;;5.60;99.90;;;;;;5031882;28;20024;-72
2021/01/25 12:39:47;;;;;;;39.63;24.42;;;5.60;99.90;;;;;;5045877;28;20100;-72